sensor_id;sensor_type;location;lat;lon;timestamp;P1;durP1;ratioP1;P2;durP2;ratioP2
46675;SDS011;32412;51.478;5.694;2022-08-19T00:00:33;25.02;;;22.45;;
46675;SDS011;32412;51.478;5.694;2022-08-19T00:03:01;23.83;;;21.30;;
46675;SDS011;32412;51.478;5.694;2022-08-19T00:05:27;26.50;;;21.35;;
46675;SDS011;32412;51.478;5.694;2022-08-19T00:07:52;24.45;;;21.95;;
46675;SDS011;32412;51.478;5.694;2022-08-19T00:10:19;24.95;;;20.98;;
46675;SDS011;32412;51.478;5.694;2022-08-19T00:12:45;26.42;;;23.52;;
46675;SDS011;32412;51.478;5.694;2022-08-19T00:15:12;24.95;;;22.23;;
46675;SDS011;32412;51.478;5.694;2022-08-19T00:17:40;24.00;;;21.50;;
46675;SDS011;32412;51.478;5.694;2022-08-19T00:20:09;28.58;;;23.17;;
46675;SDS011;32412;51.478;5.694;2022-08-19T00:22:39;30.42;;;25.60;;
46675;SDS011;32412;51.478;5.694;2022-08-19T00:25:07;31.00;;;25.17;;
46675;SDS011;32412;51.478;5.694;2022-08-19T00:27:33;29.17;;;25.98;;
46675;SDS011;32412;51.478;5.694;2022-08-19T00:29:59;30.98;;;24.67;;
46675;SDS011;32412;51.478;5.694;2022-08-19T00:32:25;29.85;;;24.23;;
46675;SDS011;32412;51.478;5.694;2022-08-19T00:34:51;27.65;;;24.15;;
46675;SDS011;32412;51.478;5.694;2022-08-19T00:37:22;30.42;;;23.50;;
46675;SDS011;32412;51.478;5.694;2022-08-19T00:39:50;31.35;;;25.30;;
46675;SDS011;32412;51.478;5.694;2022-08-19T00:42:17;31.40;;;26.95;;
46675;SDS011;32412;51.478;5.694;2022-08-19T00:44:44;31.67;;;27.73;;
46675;SDS011;32412;51.478;5.694;2022-08-19T00:47:11;35.65;;;28.67;;
46675;SDS011;32412;51.478;5.694;2022-08-19T00:49:40;37.50;;;29.77;;
46675;SDS011;32412;51.478;5.694;2022-08-19T00:52:16;33.42;;;27.70;;
46675;SDS011;32412;51.478;5.694;2022-08-19T00:54:48;36.38;;;29.52;;
46675;SDS011;32412;51.478;5.694;2022-08-19T00:57:17;37.67;;;29.35;;
46675;SDS011;32412;51.478;5.694;2022-08-19T00:59:47;39.63;;;29.02;;
46675;SDS011;32412;51.478;5.694;2022-08-19T01:02:17;38.30;;;29.10;;
46675;SDS011;32412;51.478;5.694;2022-08-19T01:04:43;45.30;;;31.98;;
46675;SDS011;32412;51.478;5.694;2022-08-19T01:07:08;41.90;;;32.50;;
46675;SDS011;32412;51.478;5.694;2022-08-19T01:09:35;41.00;;;31.08;;
46675;SDS011;32412;51.478;5.694;2022-08-19T01:12:01;40.78;;;31.17;;
46675;SDS011;32412;51.478;5.694;2022-08-19T01:14:27;46.17;;;33.67;;
46675;SDS011;32412;51.478;5.694;2022-08-19T01:16:53;42.97;;;31.50;;
46675;SDS011;32412;51.478;5.694;2022-08-19T01:19:24;41.17;;;31.88;;
46675;SDS011;32412;51.478;5.694;2022-08-19T01:22:06;43.65;;;32.28;;
46675;SDS011;32412;51.478;5.694;2022-08-19T01:24:40;44.95;;;32.25;;
46675;SDS011;32412;51.478;5.694;2022-08-19T01:27:06;48.22;;;34.42;;
46675;SDS011;32412;51.478;5.694;2022-08-19T01:29:34;45.45;;;32.78;;
46675;SDS011;32412;51.478;5.694;2022-08-19T01:32:03;47.78;;;32.60;;
46675;SDS011;32412;51.478;5.694;2022-08-19T01:34:29;54.60;;;37.78;;
46675;SDS011;32412;51.478;5.694;2022-08-19T01:36:56;58.88;;;37.75;;
46675;SDS011;32412;51.478;5.694;2022-08-19T01:39:23;45.42;;;32.20;;
46675;SDS011;32412;51.478;5.694;2022-08-19T01:41:50;42.60;;;31.75;;
46675;SDS011;32412;51.478;5.694;2022-08-19T01:44:20;44.92;;;33.08;;
46675;SDS011;32412;51.478;5.694;2022-08-19T01:46:48;46.35;;;32.97;;
46675;SDS011;32412;51.478;5.694;2022-08-19T01:49:16;44.88;;;31.13;;
46675;SDS011;32412;51.478;5.694;2022-08-19T01:51:44;40.83;;;31.00;;
46675;SDS011;32412;51.478;5.694;2022-08-19T01:54:09;42.38;;;32.10;;
46675;SDS011;32412;51.478;5.694;2022-08-19T01:56:38;45.35;;;32.60;;
46675;SDS011;32412;51.478;5.694;2022-08-19T01:59:12;53.33;;;35.97;;
46675;SDS011;32412;51.478;5.694;2022-08-19T02:01:41;47.83;;;33.65;;
46675;SDS011;32412;51.478;5.694;2022-08-19T02:04:07;49.15;;;35.05;;
46675;SDS011;32412;51.478;5.694;2022-08-19T02:06:33;52.97;;;36.97;;
46675;SDS011;32412;51.478;5.694;2022-08-19T02:08:59;57.17;;;37.85;;
46675;SDS011;32412;51.478;5.694;2022-08-19T02:11:30;54.20;;;36.85;;
46675;SDS011;32412;51.478;5.694;2022-08-19T02:13:59;50.40;;;34.20;;
46675;SDS011;32412;51.478;5.694;2022-08-19T02:16:27;48.72;;;34.35;;
46675;SDS011;32412;51.478;5.694;2022-08-19T02:18:53;55.83;;;38.00;;
46675;SDS011;32412;51.478;5.694;2022-08-19T02:21:20;57.33;;;36.83;;
46675;SDS011;32412;51.478;5.694;2022-08-19T02:23:47;57.75;;;36.72;;
46675;SDS011;32412;51.478;5.694;2022-08-19T02:26:14;55.97;;;36.78;;
46675;SDS011;32412;51.478;5.694;2022-08-19T02:28:40;59.15;;;38.55;;
46675;SDS011;32412;51.478;5.694;2022-08-19T02:31:10;61.10;;;37.72;;
46675;SDS011;32412;51.478;5.694;2022-08-19T02:33:38;54.75;;;37.65;;
46675;SDS011;32412;51.478;5.694;2022-08-19T02:36:04;56.05;;;36.38;;
46675;SDS011;32412;51.478;5.694;2022-08-19T02:38:31;51.38;;;33.88;;
46675;SDS011;32412;51.478;5.694;2022-08-19T02:41:01;47.15;;;33.38;;
46675;SDS011;32412;51.478;5.694;2022-08-19T02:43:30;50.25;;;34.15;;
46675;SDS011;32412;51.478;5.694;2022-08-19T02:45:57;47.88;;;33.75;;
46675;SDS011;32412;51.478;5.694;2022-08-19T02:48:23;48.65;;;34.72;;
46675;SDS011;32412;51.478;5.694;2022-08-19T02:50:51;49.72;;;34.20;;
46675;SDS011;32412;51.478;5.694;2022-08-19T02:53:20;54.67;;;34.40;;
46675;SDS011;32412;51.478;5.694;2022-08-19T02:55:47;67.57;;;40.95;;
46675;SDS011;32412;51.478;5.694;2022-08-19T02:58:14;51.88;;;35.15;;
46675;SDS011;32412;51.478;5.694;2022-08-19T03:00:44;48.15;;;31.90;;
46675;SDS011;32412;51.478;5.694;2022-08-19T03:03:11;46.53;;;32.92;;
46675;SDS011;32412;51.478;5.694;2022-08-19T03:05:37;51.45;;;33.28;;
46675;SDS011;32412;51.478;5.694;2022-08-19T03:08:04;46.10;;;31.63;;
46675;SDS011;32412;51.478;5.694;2022-08-19T03:10:30;49.88;;;32.10;;
46675;SDS011;32412;51.478;5.694;2022-08-19T03:12:57;46.88;;;31.67;;
46675;SDS011;32412;51.478;5.694;2022-08-19T03:15:23;38.55;;;28.75;;
46675;SDS011;32412;51.478;5.694;2022-08-19T03:17:49;45.40;;;30.65;;
46675;SDS011;32412;51.478;5.694;2022-08-19T03:20:14;55.60;;;35.20;;
46675;SDS011;32412;51.478;5.694;2022-08-19T03:22:40;50.38;;;32.63;;
46675;SDS011;32412;51.478;5.694;2022-08-19T03:25:05;52.72;;;35.30;;
46675;SDS011;32412;51.478;5.694;2022-08-19T03:27:31;50.40;;;33.17;;
46675;SDS011;32412;51.478;5.694;2022-08-19T03:29:57;49.58;;;32.25;;
46675;SDS011;32412;51.478;5.694;2022-08-19T03:32:23;53.38;;;34.80;;
46675;SDS011;32412;51.478;5.694;2022-08-19T03:34:48;52.20;;;34.60;;
46675;SDS011;32412;51.478;5.694;2022-08-19T03:37:15;53.90;;;34.88;;
46675;SDS011;32412;51.478;5.694;2022-08-19T03:39:41;50.10;;;34.58;;
46675;SDS011;32412;51.478;5.694;2022-08-19T03:42:07;50.17;;;33.78;;
46675;SDS011;32412;51.478;5.694;2022-08-19T03:44:33;57.05;;;35.13;;
46675;SDS011;32412;51.478;5.694;2022-08-19T03:47:02;60.55;;;37.35;;
46675;SDS011;32412;51.478;5.694;2022-08-19T03:49:29;63.65;;;39.78;;
46675;SDS011;32412;51.478;5.694;2022-08-19T03:51:58;56.22;;;38.03;;
46675;SDS011;32412;51.478;5.694;2022-08-19T03:54:25;54.42;;;36.00;;
46675;SDS011;32412;51.478;5.694;2022-08-19T03:56:52;52.22;;;36.88;;
46675;SDS011;32412;51.478;5.694;2022-08-19T03:59:21;57.17;;;38.42;;
46675;SDS011;32412;51.478;5.694;2022-08-19T04:01:58;55.90;;;36.67;;
46675;SDS011;32412;51.478;5.694;2022-08-19T04:04:25;54.67;;;37.17;;
46675;SDS011;32412;51.478;5.694;2022-08-19T04:06:52;53.47;;;36.28;;
46675;SDS011;32412;51.478;5.694;2022-08-19T04:09:18;54.42;;;35.55;;
46675;SDS011;32412;51.478;5.694;2022-08-19T04:11:49;54.50;;;35.80;;
46675;SDS011;32412;51.478;5.694;2022-08-19T04:14:18;63.17;;;41.97;;
46675;SDS011;32412;51.478;5.694;2022-08-19T04:16:47;55.55;;;37.35;;
46675;SDS011;32412;51.478;5.694;2022-08-19T04:19:14;65.53;;;40.05;;
46675;SDS011;32412;51.478;5.694;2022-08-19T04:21:42;60.88;;;38.53;;
46675;SDS011;32412;51.478;5.694;2022-08-19T04:24:10;50.33;;;34.22;;
46675;SDS011;32412;51.478;5.694;2022-08-19T04:26:36;48.10;;;32.97;;
46675;SDS011;32412;51.478;5.694;2022-08-19T04:29:10;49.28;;;35.03;;
46675;SDS011;32412;51.478;5.694;2022-08-19T04:31:38;61.05;;;36.95;;
46675;SDS011;32412;51.478;5.694;2022-08-19T04:34:05;60.25;;;38.53;;
46675;SDS011;32412;51.478;5.694;2022-08-19T04:36:33;48.28;;;34.55;;
46675;SDS011;32412;51.478;5.694;2022-08-19T04:39:02;57.42;;;36.95;;
46675;SDS011;32412;51.478;5.694;2022-08-19T04:41:29;46.78;;;33.72;;
46675;SDS011;32412;51.478;5.694;2022-08-19T04:44:13;68.88;;;42.45;;
46675;SDS011;32412;51.478;5.694;2022-08-19T04:46:43;69.70;;;41.67;;
46675;SDS011;32412;51.478;5.694;2022-08-19T04:49:13;69.15;;;42.08;;
46675;SDS011;32412;51.478;5.694;2022-08-19T04:51:41;63.08;;;40.13;;
46675;SDS011;32412;51.478;5.694;2022-08-19T04:54:08;60.53;;;38.95;;
46675;SDS011;32412;51.478;5.694;2022-08-19T04:56:34;51.35;;;36.55;;
46675;SDS011;32412;51.478;5.694;2022-08-19T04:59:00;55.80;;;38.80;;
46675;SDS011;32412;51.478;5.694;2022-08-19T05:01:30;60.67;;;39.25;;
46675;SDS011;32412;51.478;5.694;2022-08-19T05:03:58;54.72;;;37.90;;
46675;SDS011;32412;51.478;5.694;2022-08-19T05:06:25;63.33;;;41.47;;
46675;SDS011;32412;51.478;5.694;2022-08-19T05:08:52;64.35;;;40.63;;
46675;SDS011;32412;51.478;5.694;2022-08-19T05:11:21;66.10;;;43.97;;
46675;SDS011;32412;51.478;5.694;2022-08-19T05:13:48;72.50;;;46.63;;
46675;SDS011;32412;51.478;5.694;2022-08-19T05:16:15;67.78;;;44.63;;
46675;SDS011;32412;51.478;5.694;2022-08-19T05:18:43;72.43;;;45.67;;
46675;SDS011;32412;51.478;5.694;2022-08-19T05:24:12;75.00;;;47.92;;
46675;SDS011;32412;51.478;5.694;2022-08-19T05:26:40;70.53;;;46.78;;
46675;SDS011;32412;51.478;5.694;2022-08-19T05:29:11;68.30;;;46.90;;
46675;SDS011;32412;51.478;5.694;2022-08-19T05:31:38;75.15;;;50.25;;
46675;SDS011;32412;51.478;5.694;2022-08-19T05:34:04;75.25;;;49.45;;
46675;SDS011;32412;51.478;5.694;2022-08-19T05:36:35;71.35;;;49.40;;
46675;SDS011;32412;51.478;5.694;2022-08-19T05:39:04;74.25;;;50.00;;
46675;SDS011;32412;51.478;5.694;2022-08-19T05:41:30;73.40;;;50.17;;
46675;SDS011;32412;51.478;5.694;2022-08-19T05:43:57;76.60;;;50.30;;
46675;SDS011;32412;51.478;5.694;2022-08-19T05:46:23;78.57;;;51.63;;
46675;SDS011;32412;51.478;5.694;2022-08-19T05:48:49;77.45;;;51.75;;
46675;SDS011;32412;51.478;5.694;2022-08-19T05:51:15;76.00;;;50.08;;
46675;SDS011;32412;51.478;5.694;2022-08-19T05:53:41;77.60;;;50.33;;
46675;SDS011;32412;51.478;5.694;2022-08-19T05:56:08;76.78;;;49.63;;
46675;SDS011;32412;51.478;5.694;2022-08-19T05:58:36;74.35;;;49.20;;
46675;SDS011;32412;51.478;5.694;2022-08-19T06:01:03;79.28;;;48.95;;
46675;SDS011;32412;51.478;5.694;2022-08-19T06:03:34;83.43;;;49.40;;
46675;SDS011;32412;51.478;5.694;2022-08-19T06:06:02;81.63;;;48.70;;
46675;SDS011;32412;51.478;5.694;2022-08-19T06:08:28;80.22;;;50.85;;
46675;SDS011;32412;51.478;5.694;2022-08-19T06:10:54;84.32;;;51.03;;
46675;SDS011;32412;51.478;5.694;2022-08-19T06:13:20;76.85;;;49.17;;
46675;SDS011;32412;51.478;5.694;2022-08-19T06:15:47;77.97;;;50.13;;
46675;SDS011;32412;51.478;5.694;2022-08-19T06:18:13;79.50;;;48.80;;
46675;SDS011;32412;51.478;5.694;2022-08-19T06:20:40;80.13;;;48.50;;
46675;SDS011;32412;51.478;5.694;2022-08-19T06:23:07;74.03;;;48.47;;
46675;SDS011;32412;51.478;5.694;2022-08-19T06:25:33;79.45;;;48.83;;
46675;SDS011;32412;51.478;5.694;2022-08-19T06:27:59;87.80;;;52.40;;
46675;SDS011;32412;51.478;5.694;2022-08-19T06:30:28;82.45;;;49.05;;
46675;SDS011;32412;51.478;5.694;2022-08-19T06:32:53;85.88;;;50.42;;
46675;SDS011;32412;51.478;5.694;2022-08-19T06:35:19;87.80;;;51.25;;
46675;SDS011;32412;51.478;5.694;2022-08-19T06:37:45;82.20;;;50.22;;
46675;SDS011;32412;51.478;5.694;2022-08-19T06:40:12;82.68;;;49.08;;
46675;SDS011;32412;51.478;5.694;2022-08-19T06:42:37;78.63;;;49.17;;
46675;SDS011;32412;51.478;5.694;2022-08-19T06:45:04;82.32;;;48.55;;
46675;SDS011;32412;51.478;5.694;2022-08-19T06:47:33;74.70;;;47.08;;
46675;SDS011;32412;51.478;5.694;2022-08-19T06:49:59;77.03;;;47.67;;
46675;SDS011;32412;51.478;5.694;2022-08-19T06:52:28;71.43;;;45.75;;
46675;SDS011;32412;51.478;5.694;2022-08-19T06:54:55;75.20;;;46.85;;
46675;SDS011;32412;51.478;5.694;2022-08-19T06:57:21;73.97;;;45.88;;
46675;SDS011;32412;51.478;5.694;2022-08-19T06:59:47;64.75;;;42.28;;
46675;SDS011;32412;51.478;5.694;2022-08-19T07:02:13;72.00;;;44.00;;
46675;SDS011;32412;51.478;5.694;2022-08-19T07:04:39;64.70;;;40.53;;
46675;SDS011;32412;51.478;5.694;2022-08-19T07:07:06;65.30;;;42.05;;
46675;SDS011;32412;51.478;5.694;2022-08-19T07:09:34;64.68;;;41.83;;
46675;SDS011;32412;51.478;5.694;2022-08-19T07:12:05;64.20;;;40.03;;
46675;SDS011;32412;51.478;5.694;2022-08-19T07:14:33;59.22;;;39.40;;
46675;SDS011;32412;51.478;5.694;2022-08-19T07:17:02;61.28;;;40.17;;
46675;SDS011;32412;51.478;5.694;2022-08-19T07:19:30;62.92;;;38.85;;
46675;SDS011;32412;51.478;5.694;2022-08-19T07:21:57;61.13;;;39.15;;
46675;SDS011;32412;51.478;5.694;2022-08-19T07:24:27;58.10;;;38.67;;
46675;SDS011;32412;51.478;5.694;2022-08-19T07:26:53;54.70;;;36.75;;
46675;SDS011;32412;51.478;5.694;2022-08-19T07:29:22;55.72;;;36.88;;
46675;SDS011;32412;51.478;5.694;2022-08-19T07:31:49;50.75;;;35.20;;
46675;SDS011;32412;51.478;5.694;2022-08-19T07:34:16;54.38;;;33.95;;
46675;SDS011;32412;51.478;5.694;2022-08-19T07:36:42;56.42;;;35.00;;
46675;SDS011;32412;51.478;5.694;2022-08-19T07:39:13;46.72;;;32.28;;
46675;SDS011;32412;51.478;5.694;2022-08-19T07:41:42;50.53;;;31.80;;
46675;SDS011;32412;51.478;5.694;2022-08-19T07:44:08;51.15;;;33.17;;
46675;SDS011;32412;51.478;5.694;2022-08-19T07:46:35;51.83;;;34.33;;
46675;SDS011;32412;51.478;5.694;2022-08-19T07:49:03;49.50;;;33.88;;
46675;SDS011;32412;51.478;5.694;2022-08-19T07:51:30;48.83;;;33.67;;
46675;SDS011;32412;51.478;5.694;2022-08-19T07:53:56;47.33;;;31.42;;
46675;SDS011;32412;51.478;5.694;2022-08-19T07:56:22;47.38;;;32.85;;
46675;SDS011;32412;51.478;5.694;2022-08-19T07:58:48;43.67;;;30.02;;
46675;SDS011;32412;51.478;5.694;2022-08-19T08:01:21;47.35;;;30.83;;
46675;SDS011;32412;51.478;5.694;2022-08-19T08:03:49;44.30;;;29.08;;
46675;SDS011;32412;51.478;5.694;2022-08-19T08:06:35;38.72;;;27.95;;
46675;SDS011;32412;51.478;5.694;2022-08-19T08:09:23;45.35;;;28.58;;
46675;SDS011;32412;51.478;5.694;2022-08-19T08:11:56;44.67;;;26.95;;
46675;SDS011;32412;51.478;5.694;2022-08-19T08:14:25;42.83;;;27.45;;
46675;SDS011;32412;51.478;5.694;2022-08-19T08:16:53;42.28;;;27.25;;
46675;SDS011;32412;51.478;5.694;2022-08-19T08:19:20;42.85;;;27.13;;
46675;SDS011;32412;51.478;5.694;2022-08-19T08:21:48;37.10;;;24.75;;
46675;SDS011;32412;51.478;5.694;2022-08-19T08:24:17;35.88;;;25.95;;
46675;SDS011;32412;51.478;5.694;2022-08-19T08:26:43;34.08;;;24.55;;
46675;SDS011;32412;51.478;5.694;2022-08-19T08:29:13;35.00;;;24.23;;
46675;SDS011;32412;51.478;5.694;2022-08-19T08:31:41;33.83;;;23.80;;
46675;SDS011;32412;51.478;5.694;2022-08-19T08:34:08;27.70;;;21.48;;
46675;SDS011;32412;51.478;5.694;2022-08-19T08:36:38;35.55;;;20.98;;
46675;SDS011;32412;51.478;5.694;2022-08-19T08:39:11;30.30;;;22.30;;
46675;SDS011;32412;51.478;5.694;2022-08-19T08:44:12;28.30;;;22.67;;
46675;SDS011;32412;51.478;5.694;2022-08-19T08:46:47;25.65;;;19.13;;
46675;SDS011;32412;51.478;5.694;2022-08-19T08:52:13;32.55;;;21.27;;
46675;SDS011;32412;51.478;5.694;2022-08-19T08:54:46;27.10;;;20.80;;
46675;SDS011;32412;51.478;5.694;2022-08-19T09:00:10;21.33;;;18.33;;
46675;SDS011;32412;51.478;5.694;2022-08-19T09:02:41;22.40;;;17.47;;
46675;SDS011;32412;51.478;5.694;2022-08-19T09:05:08;26.88;;;19.45;;
46675;SDS011;32412;51.478;5.694;2022-08-19T09:07:42;22.48;;;17.63;;
46675;SDS011;32412;51.478;5.694;2022-08-19T09:12:52;24.55;;;19.60;;
46675;SDS011;32412;51.478;5.694;2022-08-19T09:15:51;21.45;;;18.55;;
46675;SDS011;32412;51.478;5.694;2022-08-19T09:18:48;21.73;;;17.95;;
46675;SDS011;32412;51.478;5.694;2022-08-19T09:21:20;22.25;;;16.70;;
46675;SDS011;32412;51.478;5.694;2022-08-19T09:23:47;22.60;;;17.98;;
46675;SDS011;32412;51.478;5.694;2022-08-19T09:26:15;19.73;;;16.92;;
46675;SDS011;32412;51.478;5.694;2022-08-19T09:28:43;20.73;;;17.10;;
46675;SDS011;32412;51.478;5.694;2022-08-19T09:31:11;21.45;;;16.25;;
46675;SDS011;32412;51.478;5.694;2022-08-19T09:33:38;20.30;;;17.42;;
46675;SDS011;32412;51.478;5.694;2022-08-19T09:36:05;18.38;;;16.42;;
46675;SDS011;32412;51.478;5.694;2022-08-19T09:38:32;18.13;;;15.20;;
46675;SDS011;32412;51.478;5.694;2022-08-19T09:41:03;18.92;;;16.92;;
46675;SDS011;32412;51.478;5.694;2022-08-19T09:43:30;20.50;;;16.35;;
46675;SDS011;32412;51.478;5.694;2022-08-19T09:45:56;22.60;;;18.55;;
46675;SDS011;32412;51.478;5.694;2022-08-19T09:48:22;22.42;;;19.77;;
46675;SDS011;32412;51.478;5.694;2022-08-19T09:50:47;25.73;;;20.33;;
46675;SDS011;32412;51.478;5.694;2022-08-19T09:53:18;21.67;;;18.50;;
46675;SDS011;32412;51.478;5.694;2022-08-19T09:55:47;23.58;;;21.02;;
46675;SDS011;32412;51.478;5.694;2022-08-19T09:58:13;21.70;;;19.48;;
46675;SDS011;32412;51.478;5.694;2022-08-19T10:00:39;21.42;;;18.85;;
46675;SDS011;32412;51.478;5.694;2022-08-19T10:03:04;19.30;;;16.50;;
46675;SDS011;32412;51.478;5.694;2022-08-19T10:05:30;17.13;;;15.13;;
46675;SDS011;32412;51.478;5.694;2022-08-19T10:08:25;19.25;;;14.38;;
46675;SDS011;32412;51.478;5.694;2022-08-19T10:10:53;16.98;;;15.35;;
46675;SDS011;32412;51.478;5.694;2022-08-19T10:13:20;18.85;;;16.98;;
46675;SDS011;32412;51.478;5.694;2022-08-19T10:15:48;19.38;;;16.98;;
46675;SDS011;32412;51.478;5.694;2022-08-19T10:18:18;20.92;;;18.38;;
46675;SDS011;32412;51.478;5.694;2022-08-19T10:20:46;26.63;;;23.00;;
46675;SDS011;32412;51.478;5.694;2022-08-19T10:23:13;26.70;;;22.95;;
46675;SDS011;32412;51.478;5.694;2022-08-19T10:25:40;25.08;;;21.02;;
46675;SDS011;32412;51.478;5.694;2022-08-19T10:28:06;21.83;;;19.02;;
46675;SDS011;32412;51.478;5.694;2022-08-19T10:30:32;20.58;;;16.85;;
46675;SDS011;32412;51.478;5.694;2022-08-19T10:33:00;25.08;;;18.58;;
46675;SDS011;32412;51.478;5.694;2022-08-19T10:35:26;24.40;;;19.13;;
46675;SDS011;32412;51.478;5.694;2022-08-19T10:37:53;26.00;;;20.65;;
46675;SDS011;32412;51.478;5.694;2022-08-19T10:40:19;24.10;;;18.35;;
46675;SDS011;32412;51.478;5.694;2022-08-19T10:42:44;28.27;;;18.60;;
46675;SDS011;32412;51.478;5.694;2022-08-19T10:45:10;24.50;;;19.17;;
46675;SDS011;32412;51.478;5.694;2022-08-19T10:47:36;23.70;;;17.80;;
46675;SDS011;32412;51.478;5.694;2022-08-19T10:50:02;26.40;;;18.98;;
46675;SDS011;32412;51.478;5.694;2022-08-19T10:52:50;23.10;;;18.60;;
46675;SDS011;32412;51.478;5.694;2022-08-19T10:55:16;25.60;;;19.25;;
46675;SDS011;32412;51.478;5.694;2022-08-19T10:58:03;24.63;;;18.73;;
46675;SDS011;32412;51.478;5.694;2022-08-19T11:00:35;23.48;;;17.60;;
46675;SDS011;32412;51.478;5.694;2022-08-19T11:03:01;24.27;;;17.42;;
46675;SDS011;32412;51.478;5.694;2022-08-19T11:05:27;22.52;;;15.90;;
46675;SDS011;32412;51.478;5.694;2022-08-19T11:07:53;20.63;;;16.38;;
46675;SDS011;32412;51.478;5.694;2022-08-19T11:10:18;20.10;;;15.60;;
46675;SDS011;32412;51.478;5.694;2022-08-19T11:12:44;24.45;;;14.15;;
46675;SDS011;32412;51.478;5.694;2022-08-19T11:15:11;18.52;;;13.73;;
46675;SDS011;32412;51.478;5.694;2022-08-19T11:17:38;18.67;;;12.73;;
46675;SDS011;32412;51.478;5.694;2022-08-19T11:20:09;19.48;;;13.10;;
46675;SDS011;32412;51.478;5.694;2022-08-19T11:22:37;18.02;;;14.20;;
46675;SDS011;32412;51.478;5.694;2022-08-19T11:25:02;19.02;;;13.15;;
46675;SDS011;32412;51.478;5.694;2022-08-19T11:27:29;17.75;;;12.25;;
46675;SDS011;32412;51.478;5.694;2022-08-19T11:29:55;19.45;;;12.65;;
46675;SDS011;32412;51.478;5.694;2022-08-19T11:32:21;19.20;;;13.80;;
46675;SDS011;32412;51.478;5.694;2022-08-19T11:34:46;18.40;;;13.80;;
46675;SDS011;32412;51.478;5.694;2022-08-19T11:37:12;19.65;;;13.88;;
46675;SDS011;32412;51.478;5.694;2022-08-19T11:39:38;17.55;;;13.52;;
46675;SDS011;32412;51.478;5.694;2022-08-19T11:42:04;14.50;;;12.43;;
46675;SDS011;32412;51.478;5.694;2022-08-19T11:44:51;19.77;;;14.48;;
46675;SDS011;32412;51.478;5.694;2022-08-19T11:47:17;17.52;;;13.52;;
46675;SDS011;32412;51.478;5.694;2022-08-19T11:49:46;15.82;;;12.60;;
46675;SDS011;32412;51.478;5.694;2022-08-19T11:52:12;16.98;;;13.90;;
46675;SDS011;32412;51.478;5.694;2022-08-19T11:54:38;16.38;;;13.15;;
46675;SDS011;32412;51.478;5.694;2022-08-19T11:57:06;18.27;;;15.23;;
46675;SDS011;32412;51.478;5.694;2022-08-19T11:59:32;22.35;;;17.42;;
46675;SDS011;32412;51.478;5.694;2022-08-19T12:01:57;19.42;;;16.77;;
46675;SDS011;32412;51.478;5.694;2022-08-19T12:04:24;18.77;;;16.25;;
46675;SDS011;32412;51.478;5.694;2022-08-19T12:06:49;25.63;;;19.10;;
46675;SDS011;32412;51.478;5.694;2022-08-19T12:09:15;20.88;;;16.95;;
46675;SDS011;32412;51.478;5.694;2022-08-19T12:11:42;22.38;;;18.27;;
46675;SDS011;32412;51.478;5.694;2022-08-19T12:14:10;27.05;;;17.23;;
46675;SDS011;32412;51.478;5.694;2022-08-19T12:16:38;21.20;;;17.52;;
46675;SDS011;32412;51.478;5.694;2022-08-19T12:19:04;23.42;;;18.25;;
46675;SDS011;32412;51.478;5.694;2022-08-19T12:21:31;21.63;;;18.15;;
46675;SDS011;32412;51.478;5.694;2022-08-19T12:24:00;21.63;;;18.48;;
46675;SDS011;32412;51.478;5.694;2022-08-19T12:26:28;26.55;;;18.17;;
46675;SDS011;32412;51.478;5.694;2022-08-19T12:28:56;24.58;;;21.85;;
46675;SDS011;32412;51.478;5.694;2022-08-19T12:31:26;22.05;;;19.65;;
46675;SDS011;32412;51.478;5.694;2022-08-19T12:33:55;21.38;;;18.98;;
46675;SDS011;32412;51.478;5.694;2022-08-19T12:36:24;20.17;;;17.13;;
46675;SDS011;32412;51.478;5.694;2022-08-19T12:38:50;23.85;;;20.27;;
46675;SDS011;32412;51.478;5.694;2022-08-19T12:41:17;21.20;;;18.95;;
46675;SDS011;32412;51.478;5.694;2022-08-19T12:43:44;24.65;;;18.88;;
46675;SDS011;32412;51.478;5.694;2022-08-19T12:46:10;25.33;;;20.05;;
46675;SDS011;32412;51.478;5.694;2022-08-19T12:48:37;21.45;;;18.77;;
46675;SDS011;32412;51.478;5.694;2022-08-19T12:51:07;21.77;;;18.20;;
46675;SDS011;32412;51.478;5.694;2022-08-19T12:53:35;20.70;;;18.60;;
46675;SDS011;32412;51.478;5.694;2022-08-19T12:56:01;26.58;;;20.17;;
46675;SDS011;32412;51.478;5.694;2022-08-19T12:58:28;21.73;;;19.23;;
46675;SDS011;32412;51.478;5.694;2022-08-19T13:00:54;26.00;;;21.55;;
46675;SDS011;32412;51.478;5.694;2022-08-19T13:03:20;24.58;;;21.00;;
46675;SDS011;32412;51.478;5.694;2022-08-19T13:05:47;26.88;;;21.25;;
46675;SDS011;32412;51.478;5.694;2022-08-19T13:08:15;26.52;;;22.02;;
46675;SDS011;32412;51.478;5.694;2022-08-19T13:10:41;28.10;;;22.13;;
46675;SDS011;32412;51.478;5.694;2022-08-19T13:13:08;26.20;;;20.95;;
46675;SDS011;32412;51.478;5.694;2022-08-19T13:15:35;24.08;;;19.77;;
46675;SDS011;32412;51.478;5.694;2022-08-19T13:18:04;25.13;;;19.42;;
46675;SDS011;32412;51.478;5.694;2022-08-19T13:20:30;27.95;;;18.98;;
46675;SDS011;32412;51.478;5.694;2022-08-19T13:22:55;23.17;;;18.65;;
46675;SDS011;32412;51.478;5.694;2022-08-19T13:25:22;22.05;;;18.83;;
46675;SDS011;32412;51.478;5.694;2022-08-19T13:27:48;26.58;;;19.77;;
46675;SDS011;32412;51.478;5.694;2022-08-19T13:30:16;24.70;;;18.33;;
46675;SDS011;32412;51.478;5.694;2022-08-19T13:33:01;24.17;;;18.38;;
46675;SDS011;32412;51.478;5.694;2022-08-19T13:35:50;22.90;;;17.73;;
46675;SDS011;32412;51.478;5.694;2022-08-19T13:38:22;19.15;;;17.10;;
46675;SDS011;32412;51.478;5.694;2022-08-19T13:40:49;22.95;;;18.70;;
46675;SDS011;32412;51.478;5.694;2022-08-19T13:43:17;21.98;;;18.02;;
46675;SDS011;32412;51.478;5.694;2022-08-19T13:45:44;21.02;;;17.00;;
46675;SDS011;32412;51.478;5.694;2022-08-19T13:48:10;24.92;;;17.50;;
46675;SDS011;32412;51.478;5.694;2022-08-19T13:50:41;19.73;;;15.35;;
46675;SDS011;32412;51.478;5.694;2022-08-19T13:53:09;22.88;;;16.98;;
46675;SDS011;32412;51.478;5.694;2022-08-19T13:55:37;20.55;;;15.98;;
46675;SDS011;32412;51.478;5.694;2022-08-19T13:58:03;21.15;;;15.23;;
46675;SDS011;32412;51.478;5.694;2022-08-19T14:00:31;19.38;;;13.88;;
46675;SDS011;32412;51.478;5.694;2022-08-19T14:02:58;16.52;;;13.20;;
46675;SDS011;32412;51.478;5.694;2022-08-19T14:05:25;16.67;;;13.10;;
46675;SDS011;32412;51.478;5.694;2022-08-19T14:07:52;13.60;;;10.02;;
46675;SDS011;32412;51.478;5.694;2022-08-19T14:10:18;11.60;;;9.55;;
46675;SDS011;32412;51.478;5.694;2022-08-19T14:12:44;13.40;;;10.52;;
46675;SDS011;32412;51.478;5.694;2022-08-19T14:15:11;12.05;;;9.30;;
46675;SDS011;32412;51.478;5.694;2022-08-19T14:17:38;13.88;;;9.00;;
46675;SDS011;32412;51.478;5.694;2022-08-19T14:20:08;11.52;;;9.85;;
46675;SDS011;32412;51.478;5.694;2022-08-19T14:22:36;13.43;;;11.57;;
46675;SDS011;32412;51.478;5.694;2022-08-19T14:25:05;13.75;;;10.05;;
46675;SDS011;32412;51.478;5.694;2022-08-19T14:27:33;12.75;;;10.00;;
46675;SDS011;32412;51.478;5.694;2022-08-19T14:29:59;13.63;;;9.82;;
46675;SDS011;32412;51.478;5.694;2022-08-19T14:32:25;10.82;;;9.63;;
46675;SDS011;32412;51.478;5.694;2022-08-19T14:34:53;13.27;;;9.25;;
46675;SDS011;32412;51.478;5.694;2022-08-19T14:37:19;12.40;;;10.25;;
46675;SDS011;32412;51.478;5.694;2022-08-19T14:39:47;11.75;;;9.75;;